Terminal Aerodrome Forecast
Issued by NWS

Home | Current Version | Previous Version | Text Only | Print | Product List | Glossary On
Versions: 1 2 3 4 5 6 7 8 9 10 11 12 13 14
000
FTUS43 KDVN 181120
TAFBRL
TAF
KBRL 181120Z 1812/1912 19008KT P6SM SKC
     FM181600 19011KT P6SM SKC
     FM181800 20014G21KT P6SM SCT250
     FM190000 19006KT P6SM SCT250=

USA.gov is the U.S. government's official web portal to all federal, state and local government web resources and services.